createdAt,value
2023-04-21T00:01:59.766Z,7.27
2023-04-21T00:04:29.202Z,7.25
2023-04-21T00:06:57.413Z,7.24
2023-04-21T00:09:25.486Z,7.23
2023-04-21T00:11:53.582Z,7.21
2023-04-21T00:14:21.774Z,7.20
2023-04-21T00:16:52.783Z,7.19
2023-04-21T00:19:21.245Z,7.18
2023-04-21T00:21:49.590Z,7.19
2023-04-21T00:24:17.784Z,7.18
2023-04-21T00:26:45.929Z,7.16
2023-04-21T00:29:14.138Z,7.18
2023-04-21T00:31:42.219Z,7.19
2023-04-21T00:34:10.503Z,7.19
2023-04-21T00:36:38.660Z,7.19
2023-04-21T00:39:07.550Z,7.18
2023-04-21T00:41:37.051Z,7.19
2023-04-21T00:44:06.388Z,7.17
2023-04-21T00:46:35.099Z,7.15
2023-04-21T00:49:07.051Z,7.11
2023-04-21T00:51:35.947Z,7.08
2023-04-21T00:54:05.334Z,7.05
2023-04-21T00:56:35.594Z,7.06
2023-04-21T00:59:04.222Z,7.05
2023-04-21T01:01:34.344Z,7.04
2023-04-21T01:04:04.014Z,7.01
2023-04-21T01:06:33.179Z,7.00
2023-04-21T01:09:01.575Z,7.00
2023-04-21T01:11:29.830Z,6.98
2023-04-21T01:13:57.933Z,6.96
2023-04-21T01:16:27.014Z,6.93
2023-04-21T01:18:55.324Z,6.91
2023-04-21T01:21:23.895Z,6.91
2023-04-21T01:23:52.103Z,6.92
2023-04-21T01:26:21.713Z,6.92
2023-04-21T01:28:50.065Z,6.90
2023-04-21T01:31:18.451Z,6.88
2023-04-21T01:33:46.524Z,6.86
2023-04-21T01:36:14.502Z,6.84
2023-04-21T01:38:42.700Z,6.82
2023-04-21T01:41:10.972Z,6.79
2023-04-21T01:43:39.325Z,6.77
2023-04-21T01:46:07.670Z,6.76
2023-04-21T01:48:37.164Z,6.76
2023-04-21T01:51:07.579Z,6.76
2023-04-21T01:53:35.917Z,6.76
2023-04-21T01:56:04.205Z,6.76
2023-04-21T01:58:32.639Z,6.76
2023-04-21T02:01:00.855Z,6.77
2023-04-21T02:03:29.484Z,6.76
2023-04-21T02:05:57.910Z,6.74
2023-04-21T02:08:25.986Z,6.72
2023-04-21T02:10:54.112Z,6.72
2023-04-21T02:13:22.820Z,6.72
2023-04-21T02:16:02.478Z,6.71
2023-04-21T02:18:40.114Z,6.72
2023-04-21T02:21:08.434Z,6.73
2023-04-21T02:23:36.703Z,6.73
2023-04-21T02:26:04.896Z,6.74
2023-04-21T02:28:33.927Z,6.75
2023-04-21T02:31:02.049Z,6.77
2023-04-21T02:33:30.539Z,6.78
2023-04-21T02:35:58.616Z,6.78
2023-04-21T02:38:26.660Z,6.77
2023-04-21T02:40:54.818Z,6.78
2023-04-21T02:43:23.076Z,6.76
2023-04-21T02:45:51.369Z,6.76
2023-04-21T02:48:23.200Z,6.78
2023-04-21T02:50:53.396Z,6.80
2023-04-21T02:53:21.897Z,6.80
2023-04-21T02:55:49.924Z,6.80
2023-04-21T02:58:18.554Z,6.78
2023-04-21T03:00:46.797Z,6.76
2023-04-21T03:03:16.380Z,6.75
2023-04-21T03:05:44.635Z,6.77
2023-04-21T03:08:13.081Z,6.81
2023-04-21T03:10:41.451Z,6.82
2023-04-21T03:13:09.551Z,6.82
2023-04-21T03:15:37.645Z,6.82
2023-04-21T03:18:05.960Z,6.86
2023-04-21T03:20:34.737Z,6.90
2023-04-21T03:23:02.870Z,6.93
2023-04-21T03:25:31.445Z,6.95
2023-04-21T03:27:59.920Z,6.99
2023-04-21T03:30:28.019Z,7.02
2023-04-21T03:32:56.121Z,7.05
2023-04-21T03:35:24.307Z,7.09
2023-04-21T03:37:52.417Z,7.11
2023-04-21T03:40:21.736Z,7.14
2023-04-21T03:42:50.142Z,7.17
2023-04-21T03:45:22.720Z,7.20
2023-04-21T03:47:55.420Z,7.22
2023-04-21T03:50:23.720Z,7.23
2023-04-21T03:52:51.786Z,7.25
2023-04-21T03:55:19.885Z,7.26
2023-04-21T03:57:47.895Z,7.29
2023-04-21T04:00:16.135Z,7.30
2023-04-21T04:02:44.279Z,7.33
2023-04-21T04:05:12.598Z,7.36
2023-04-21T04:07:41.621Z,7.39
2023-04-21T04:10:09.770Z,7.43
2023-04-21T04:12:38.617Z,7.47
2023-04-21T04:15:07.935Z,7.50
2023-04-21T04:17:36.078Z,7.53
2023-04-21T04:20:04.732Z,7.57
2023-04-21T04:22:34.046Z,7.63
2023-04-21T04:25:02.869Z,7.69
2023-04-21T04:27:31.215Z,7.75
2023-04-21T04:29:59.385Z,7.81
2023-04-21T04:32:30.290Z,7.88
2023-04-21T04:34:59.057Z,7.94
2023-04-21T04:37:27.360Z,8.02
2023-04-21T04:39:58.425Z,8.08
2023-04-21T04:42:26.598Z,8.16
2023-04-21T04:44:54.753Z,8.23
2023-04-21T04:47:22.985Z,8.32
2023-04-21T04:49:51.414Z,8.40
2023-04-21T04:52:19.607Z,8.49
2023-04-21T04:54:47.637Z,8.60
2023-04-21T04:57:15.812Z,8.72
2023-04-21T04:59:43.853Z,8.84
2023-04-21T05:02:12.530Z,8.95
2023-04-21T05:04:40.848Z,9.07
2023-04-21T05:07:09.178Z,9.16
2023-04-21T05:09:37.270Z,9.19
2023-04-21T05:12:06.143Z,9.23
2023-04-21T05:14:35.568Z,9.24
2023-04-21T05:17:03.776Z,9.22
2023-04-21T05:19:32.125Z,9.25
2023-04-21T05:22:02.944Z,9.29
2023-04-21T05:24:31.240Z,9.32
2023-04-21T05:26:59.281Z,9.31
2023-04-21T05:29:27.535Z,9.33
2023-04-21T05:31:55.721Z,9.36
2023-04-21T05:34:23.811Z,9.40
2023-04-21T05:36:52.490Z,9.46
2023-04-21T05:39:20.703Z,9.52
2023-04-21T05:41:48.879Z,9.58
2023-04-21T05:44:20.732Z,9.68
2023-04-21T05:46:49.332Z,9.77
2023-04-21T05:49:17.426Z,9.84
2023-04-21T05:51:45.493Z,9.90
2023-04-21T05:54:13.639Z,9.95
2023-04-21T05:56:41.666Z,9.99
2023-04-21T05:59:09.696Z,10.04
2023-04-21T06:01:37.810Z,10.11
2023-04-21T06:04:06.283Z,10.18
2023-04-21T06:06:34.946Z,10.26
2023-04-21T06:09:03.131Z,10.34
2023-04-21T06:11:31.569Z,10.40
2023-04-21T06:14:00.001Z,10.50
2023-04-21T06:16:28.154Z,10.57
2023-04-21T06:18:59.114Z,10.65
2023-04-21T06:21:27.292Z,10.74
2023-04-21T06:23:55.850Z,10.85
2023-04-21T06:26:23.830Z,10.96
2023-04-21T06:28:51.887Z,11.07
2023-04-21T06:31:20.261Z,11.16
2023-04-21T06:33:48.571Z,11.26
2023-04-21T06:36:18.072Z,11.35
2023-04-21T06:38:46.429Z,11.41
2023-04-21T06:41:14.476Z,11.44
2023-04-21T06:43:45.800Z,11.49
2023-04-21T06:46:14.613Z,11.53
2023-04-21T06:48:42.791Z,11.48
2023-04-21T06:51:10.935Z,11.36
2023-04-21T06:53:39.075Z,11.28
2023-04-21T06:56:07.306Z,11.23
2023-04-21T06:58:35.419Z,11.20
2023-04-21T07:01:04.138Z,11.17
2023-04-21T07:03:32.322Z,11.18
2023-04-21T07:06:00.673Z,11.21
2023-04-21T07:08:28.746Z,11.26
2023-04-21T07:10:56.758Z,11.35
2023-04-21T07:13:24.880Z,11.45
2023-04-21T07:15:52.933Z,11.55
2023-04-21T07:18:21.098Z,11.69
2023-04-21T07:20:49.113Z,11.84
2023-04-21T07:23:17.194Z,12.01
2023-04-21T07:25:45.671Z,12.16
2023-04-21T07:28:16.236Z,12.24
2023-04-21T07:30:44.230Z,12.17
2023-04-21T07:33:12.286Z,12.04
2023-04-21T07:35:40.255Z,11.94
2023-04-21T07:38:08.637Z,11.87
2023-04-21T07:40:36.744Z,11.82
2023-04-21T07:43:04.848Z,11.77
2023-04-21T07:45:33.205Z,11.74
2023-04-21T07:48:03.312Z,11.75
2023-04-21T07:50:31.690Z,11.72
2023-04-21T07:52:59.924Z,11.72
2023-04-21T07:55:28.759Z,11.76
2023-04-21T07:57:56.948Z,11.81
2023-04-21T08:00:25.472Z,11.89
2023-04-21T08:02:53.927Z,12.01
2023-04-21T08:05:22.189Z,12.21
2023-04-21T08:07:50.556Z,12.47
2023-04-21T08:10:18.619Z,12.76
2023-04-21T08:12:46.939Z,13.04
2023-04-21T08:15:15.007Z,13.18
2023-04-21T08:17:43.539Z,13.32
2023-04-21T08:20:12.243Z,13.51
2023-04-21T08:22:41.246Z,13.68
2023-04-21T08:25:09.512Z,13.87
2023-04-21T08:27:39.309Z,14.06
2023-04-21T08:30:08.993Z,14.27
2023-04-21T08:32:37.576Z,14.25
2023-04-21T08:35:06.235Z,14.27
2023-04-21T08:37:37.474Z,14.40
2023-04-21T08:40:06.558Z,14.65
2023-04-21T08:42:35.065Z,14.90
2023-04-21T08:45:03.380Z,15.09
2023-04-21T08:47:32.870Z,15.21
2023-04-21T08:50:01.041Z,15.26
2023-04-21T08:52:29.495Z,15.35
2023-04-21T08:54:57.588Z,15.41
2023-04-21T08:57:25.672Z,15.36
2023-04-21T08:59:53.658Z,15.48
2023-04-21T09:02:22.026Z,15.72
2023-04-21T09:04:52.243Z,15.84
2023-04-21T09:07:34.747Z,15.82
2023-04-21T09:10:06.616Z,15.68
2023-04-21T09:12:35.101Z,15.47
2023-04-21T09:15:06.560Z,15.30
2023-04-21T09:17:36.976Z,15.24
2023-04-21T09:20:16.041Z,15.31
2023-04-21T09:22:44.398Z,15.27
2023-04-21T09:25:16.859Z,15.18
2023-04-21T09:27:45.977Z,15.13
2023-04-21T09:30:14.354Z,15.16
2023-04-21T09:32:42.866Z,15.28
2023-04-21T09:35:11.437Z,15.39
2023-04-21T09:37:39.874Z,15.43
2023-04-21T09:40:08.228Z,15.32
2023-04-21T09:42:39.364Z,15.05
2023-04-21T09:45:32.406Z,14.71
2023-04-21T09:48:02.553Z,14.49
2023-04-21T09:53:02.396Z,14.34
2023-04-21T09:55:30.815Z,14.28
2023-04-21T09:58:00.299Z,14.29
2023-04-21T10:00:31.303Z,14.38
2023-04-21T10:03:00.178Z,14.50
2023-04-21T10:05:29.040Z,14.58
2023-04-21T10:07:57.388Z,14.82
2023-04-21T10:10:27.413Z,15.01
2023-04-21T10:12:55.459Z,15.04
2023-04-21T10:15:34.283Z,14.89
2023-04-21T10:18:23.855Z,14.62
2023-04-21T10:20:58.887Z,14.33
2023-04-21T10:23:36.725Z,14.14
2023-04-21T10:26:06.946Z,14.04
2023-04-21T10:28:44.330Z,13.97
2023-04-21T10:31:28.380Z,13.76
2023-04-21T10:34:08.852Z,13.60
2023-04-21T10:36:43.136Z,13.50
2023-04-21T10:39:16.306Z,13.40
2023-04-21T10:41:46.512Z,13.37
2023-04-21T10:44:14.707Z,13.47
2023-04-21T10:46:53.292Z,13.66
2023-04-21T10:49:23.675Z,13.97
2023-04-21T10:51:57.538Z,14.37
2023-04-21T10:54:26.515Z,14.87
2023-04-21T10:56:55.910Z,15.26
2023-04-21T10:59:24.557Z,15.43
2023-04-21T11:01:52.778Z,15.60
2023-04-21T11:04:22.066Z,15.83
2023-04-21T11:07:08.070Z,16.06
2023-04-21T11:09:37.068Z,16.10
2023-04-21T11:12:09.629Z,16.16
2023-04-21T11:14:39.789Z,16.12
2023-04-21T11:17:17.805Z,16.04
2023-04-21T11:19:48.094Z,16.02
2023-04-21T11:22:20.882Z,16.12
2023-04-21T11:24:51.186Z,16.33
2023-04-21T11:27:19.464Z,16.81
2023-04-21T11:29:47.545Z,17.36
2023-04-21T11:32:16.573Z,17.83
2023-04-21T11:34:45.989Z,17.96
2023-04-21T11:37:26.112Z,18.13
2023-04-21T11:39:58.947Z,18.31
2023-04-21T11:42:27.399Z,18.35
2023-04-21T11:44:56.715Z,18.38
2023-04-21T11:47:28.391Z,18.30
2023-04-21T11:49:58.367Z,18.19
2023-04-21T11:52:33.602Z,18.14
2023-04-21T11:55:03.223Z,18.15
2023-04-21T11:57:32.701Z,18.08
2023-04-21T12:00:01.957Z,17.98
2023-04-21T12:02:33.673Z,17.85
2023-04-21T12:05:11.874Z,17.72
2023-04-21T12:07:48.049Z,17.60
2023-04-21T12:10:20.314Z,17.60
2023-04-21T12:12:48.828Z,17.56
2023-04-21T12:15:21.680Z,17.37
2023-04-21T12:17:54.217Z,17.10
2023-04-21T12:20:23.644Z,16.92
2023-04-21T12:22:52.615Z,16.70
2023-04-21T12:25:20.679Z,16.50
2023-04-21T12:27:52.608Z,16.49
2023-04-21T12:30:23.392Z,16.55
2023-04-21T12:32:52.582Z,16.46
2023-04-21T12:35:20.831Z,16.35
2023-04-21T12:37:48.900Z,16.37
2023-04-21T12:40:16.995Z,16.35
2023-04-21T12:42:49.015Z,16.23
2023-04-21T12:45:17.127Z,16.16
2023-04-21T12:47:46.900Z,16.12
2023-04-21T12:50:16.023Z,16.05
2023-04-21T12:52:44.075Z,15.91
2023-04-21T12:55:13.563Z,15.76
2023-04-21T12:57:41.675Z,15.70
2023-04-21T13:00:12.519Z,15.70
2023-04-21T13:02:41.955Z,15.77
2023-04-21T13:05:12.174Z,15.81
2023-04-21T13:07:41.585Z,15.87
2023-04-21T13:10:10.280Z,15.98
2023-04-21T13:12:41.575Z,16.07
2023-04-21T13:15:10.107Z,16.14
2023-04-21T13:17:38.224Z,16.09
2023-04-21T13:20:07.411Z,16.02
2023-04-21T13:22:35.896Z,16.01
2023-04-21T13:25:04.771Z,15.96
2023-04-21T13:27:34.184Z,15.93
2023-04-21T13:30:02.263Z,15.97
2023-04-21T13:32:31.058Z,16.00
2023-04-21T13:34:59.211Z,15.88
2023-04-21T13:37:27.232Z,15.80
2023-04-21T13:39:55.413Z,15.86
2023-04-21T13:42:23.484Z,15.84
2023-04-21T13:44:51.668Z,15.79
2023-04-21T13:47:19.763Z,15.74
2023-04-21T13:49:48.748Z,15.71
2023-04-21T13:52:16.862Z,15.67
2023-04-21T13:54:45.133Z,15.65
2023-04-21T13:57:13.380Z,15.71
2023-04-21T13:59:41.904Z,15.80
2023-04-21T14:02:10.066Z,15.86
2023-04-21T14:04:38.742Z,15.90
2023-04-21T14:07:08.192Z,15.90
2023-04-21T14:09:37.248Z,15.91
2023-04-21T14:12:05.511Z,15.89
2023-04-21T14:14:38.796Z,15.87
2023-04-21T14:17:07.689Z,15.89
2023-04-21T14:19:36.755Z,15.91
2023-04-21T14:22:08.404Z,15.88
2023-04-21T14:24:36.444Z,15.90
2023-04-21T14:27:04.611Z,15.96
2023-04-21T14:29:33.044Z,16.06
2023-04-21T14:32:01.461Z,16.20
2023-04-21T14:34:30.230Z,16.34
2023-04-21T14:36:58.255Z,16.45
2023-04-21T14:39:26.459Z,16.44
2023-04-21T14:41:54.774Z,16.41
2023-04-21T14:44:22.793Z,16.34
2023-04-21T14:47:01.462Z,16.30
2023-04-21T14:49:34.398Z,16.26
2023-04-21T14:52:03.829Z,16.16
2023-04-21T14:54:32.047Z,16.03
2023-04-21T14:57:17.466Z,15.85
2023-04-21T14:59:47.029Z,15.60
2023-04-21T15:02:15.601Z,15.34
2023-04-21T15:04:43.974Z,15.08
2023-04-21T15:07:12.513Z,14.92
2023-04-21T15:09:43.198Z,14.81
2023-04-21T15:12:13.516Z,14.64
2023-04-21T15:14:41.515Z,14.43
2023-04-21T15:17:09.851Z,14.27
2023-04-21T15:19:38.172Z,14.09
2023-04-21T15:22:06.403Z,13.95
2023-04-21T15:24:34.622Z,13.81
2023-04-21T15:27:02.893Z,13.69
2023-04-21T15:29:31.291Z,13.60
2023-04-21T15:31:59.541Z,13.54
2023-04-21T15:34:27.651Z,13.46
2023-04-21T15:36:55.843Z,13.40
2023-04-21T15:39:24.026Z,13.35
2023-04-21T15:41:53.358Z,13.29
2023-04-21T15:44:21.652Z,13.18
2023-04-21T15:46:50.771Z,13.08
2023-04-21T15:49:18.806Z,13.00
2023-04-21T15:51:47.056Z,12.93
2023-04-21T15:54:16.033Z,12.84
2023-04-21T15:56:44.063Z,12.73
2023-04-21T15:59:12.100Z,12.61
2023-04-21T16:01:40.710Z,12.55
2023-04-21T16:04:09.336Z,12.49
2023-04-21T16:06:38.246Z,12.42
2023-04-21T16:09:06.515Z,12.33
2023-04-21T16:11:34.642Z,12.23
2023-04-21T16:14:03.094Z,12.13
2023-04-21T16:16:31.509Z,12.07
2023-04-21T16:18:59.684Z,12.02
2023-04-21T16:21:27.991Z,11.96
2023-04-21T16:23:56.516Z,11.92
2023-04-21T16:26:24.589Z,11.88
2023-04-21T16:28:54.426Z,11.86
2023-04-21T16:31:22.805Z,11.83
2023-04-21T16:33:52.782Z,11.78
2023-04-21T16:36:21.817Z,11.69
2023-04-21T16:38:50.117Z,11.63
2023-04-21T16:41:21.970Z,11.61
2023-04-21T16:43:50.067Z,11.61
2023-04-21T16:46:19.075Z,11.62
2023-04-21T16:48:47.259Z,11.62
2023-04-21T16:51:15.326Z,11.60
2023-04-21T16:53:44.030Z,11.58
2023-04-21T16:56:12.835Z,11.55
2023-04-21T16:58:41.717Z,11.50
2023-04-21T17:01:10.278Z,11.45
2023-04-21T17:03:39.096Z,11.38
2023-04-21T17:06:12.216Z,11.32
2023-04-21T17:08:40.386Z,11.26
2023-04-21T17:11:08.538Z,11.23
2023-04-21T17:13:39.384Z,11.16
2023-04-21T17:16:10.733Z,11.11
2023-04-21T17:18:45.755Z,11.02
2023-04-21T17:21:13.965Z,10.94
2023-04-21T17:23:42.186Z,10.85
2023-04-21T17:26:12.407Z,10.75
2023-04-21T17:28:44.798Z,10.65
2023-04-21T17:31:15.882Z,10.55
2023-04-21T17:34:10.285Z,10.46
2023-04-21T17:36:40.344Z,10.38
2023-04-21T17:39:11.381Z,10.30
2023-04-21T17:41:40.996Z,10.23
2023-04-21T17:44:11.248Z,10.16
2023-04-21T17:46:39.571Z,10.11
2023-04-21T17:49:07.809Z,10.07
2023-04-21T17:51:36.257Z,10.03
2023-04-21T17:54:05.468Z,9.99
2023-04-21T17:56:33.741Z,9.97
2023-04-21T17:59:01.863Z,9.94
2023-04-21T18:01:30.434Z,9.95
2023-04-21T18:04:01.888Z,9.99
2023-04-21T18:06:30.548Z,10.01
2023-04-21T18:08:58.747Z,10.02
2023-04-21T18:11:27.099Z,10.04
2023-04-21T18:13:57.117Z,10.07
2023-04-21T18:16:25.869Z,10.08
2023-04-21T18:18:54.217Z,10.08
2023-04-21T18:21:26.532Z,10.09
2023-04-21T18:23:54.995Z,10.08
2023-04-21T18:26:23.342Z,10.06
2023-04-21T18:28:54.209Z,10.05
2023-04-21T18:31:26.291Z,10.03
2023-04-21T18:33:57.959Z,10.00
2023-04-21T18:36:26.375Z,9.99
2023-04-21T18:38:54.716Z,10.02
2023-04-21T18:41:23.233Z,10.05
2023-04-21T18:43:51.529Z,10.07
2023-04-21T18:46:19.881Z,10.11
2023-04-21T18:48:48.189Z,10.13
2023-04-21T18:51:16.418Z,10.13
2023-04-21T18:53:46.490Z,10.13
2023-04-21T18:56:14.800Z,10.15
2023-04-21T18:58:42.893Z,10.17
2023-04-21T19:01:11.279Z,10.16
2023-04-21T19:03:39.853Z,10.13
2023-04-21T19:06:08.069Z,10.11
2023-04-21T19:08:42.597Z,10.11
2023-04-21T19:11:13.833Z,10.08
2023-04-21T19:13:42.412Z,10.10
2023-04-21T19:16:11.223Z,10.11
2023-04-21T19:18:39.503Z,10.11
2023-04-21T19:21:10.619Z,10.14
2023-04-21T19:23:38.929Z,10.14
2023-04-21T19:26:08.863Z,10.13
2023-04-21T19:28:37.508Z,10.15
2023-04-21T19:31:05.784Z,10.16
2023-04-21T19:33:35.057Z,10.21
2023-04-21T19:36:03.456Z,10.24
2023-04-21T19:38:31.820Z,10.26
2023-04-21T19:40:59.933Z,10.27
2023-04-21T19:43:28.050Z,10.26
2023-04-21T19:45:56.851Z,10.26
2023-04-21T19:48:25.218Z,10.28
2023-04-21T19:50:53.640Z,10.26
2023-04-21T19:53:22.217Z,10.26
2023-04-21T19:55:52.493Z,10.22
2023-04-21T19:58:36.277Z,10.15
2023-04-21T20:01:07.510Z,10.06
2023-04-21T20:03:36.305Z,9.97
2023-04-21T20:06:05.124Z,9.94
2023-04-21T20:08:33.727Z,9.91
2023-04-21T20:11:01.895Z,9.91
2023-04-21T20:13:30.112Z,9.92
2023-04-21T20:15:58.401Z,9.91
2023-04-21T20:18:26.804Z,9.86
2023-04-21T20:20:55.140Z,9.79
2023-04-21T20:23:23.690Z,9.75
2023-04-21T20:25:51.723Z,9.72
2023-04-21T20:28:20.684Z,9.69
2023-04-21T20:30:48.907Z,9.65
2023-04-21T20:33:17.492Z,9.66
2023-04-21T20:35:46.143Z,9.67
2023-04-21T20:38:14.445Z,9.66
2023-04-21T20:40:43.144Z,9.63
2023-04-21T20:43:12.370Z,9.61
2023-04-21T20:45:41.487Z,9.62
2023-04-21T20:48:09.622Z,9.61
2023-04-21T20:50:41.373Z,9.60
2023-04-21T20:53:10.863Z,9.56
2023-04-21T20:55:38.976Z,9.58
2023-04-21T20:58:07.094Z,9.55
2023-04-21T21:00:36.018Z,9.50
2023-04-21T21:03:10.002Z,9.47
2023-04-21T21:05:38.547Z,9.43
2023-04-21T21:08:07.302Z,9.41
2023-04-21T21:10:35.620Z,9.40
2023-04-21T21:13:03.740Z,9.39
2023-04-21T21:15:32.414Z,9.38
2023-04-21T21:18:00.514Z,9.36
2023-04-21T21:20:28.883Z,9.36
2023-04-21T21:22:57.360Z,9.34
2023-04-21T21:25:26.005Z,9.32
2023-04-21T21:27:55.304Z,9.30
2023-04-21T21:30:23.486Z,9.27
2023-04-21T21:32:55.472Z,9.26
2023-04-21T21:35:23.909Z,9.22
2023-04-21T21:37:52.310Z,9.22
2023-04-21T21:40:21.151Z,9.19
2023-04-21T21:42:49.318Z,9.17
2023-04-21T21:45:17.502Z,9.15
2023-04-21T21:47:46.068Z,9.12
2023-04-21T21:50:14.249Z,9.10
2023-04-21T21:52:42.349Z,9.07
2023-04-21T21:55:10.608Z,9.04
2023-04-21T21:57:39.145Z,9.02
2023-04-21T22:00:08.839Z,9.00
2023-04-21T22:02:37.716Z,8.98
2023-04-21T22:05:06.317Z,8.96
2023-04-21T22:07:35.614Z,8.93
2023-04-21T22:10:04.040Z,8.88
2023-04-21T22:12:33.164Z,8.84
2023-04-21T22:15:01.504Z,8.80
2023-04-21T22:17:30.948Z,8.77
2023-04-21T22:19:59.186Z,8.74
2023-04-21T22:22:27.350Z,8.70
2023-04-21T22:24:55.596Z,8.67
2023-04-21T22:27:23.669Z,8.60
2023-04-21T22:29:52.557Z,8.54
2023-04-21T22:32:20.961Z,8.49
2023-04-21T22:34:48.933Z,8.44
2023-04-21T22:37:16.973Z,8.37
2023-04-21T22:39:45.910Z,8.32
2023-04-21T22:42:14.268Z,8.27
2023-04-21T22:44:42.945Z,8.23
2023-04-21T22:47:12.190Z,8.19
2023-04-21T22:49:40.875Z,8.16
2023-04-21T22:52:09.260Z,8.12
2023-04-21T22:54:38.482Z,8.10
2023-04-21T22:57:06.805Z,8.08
2023-04-21T22:59:35.530Z,8.05
2023-04-21T23:02:05.079Z,8.02
2023-04-21T23:04:35.363Z,7.99
2023-04-21T23:07:03.781Z,7.98
2023-04-21T23:09:32.725Z,7.94
2023-04-21T23:12:01.597Z,7.90
2023-04-21T23:14:29.789Z,7.87
2023-04-21T23:16:57.858Z,7.84
2023-04-21T23:19:26.104Z,7.82
2023-04-21T23:21:54.163Z,7.80
2023-04-21T23:24:22.210Z,7.78
2023-04-21T23:26:50.240Z,7.76
2023-04-21T23:29:18.609Z,7.75
2023-04-21T23:31:47.024Z,7.73
2023-04-21T23:34:15.635Z,7.69
2023-04-21T23:36:43.674Z,7.67
2023-04-21T23:39:12.136Z,7.65
2023-04-21T23:41:40.190Z,7.62
2023-04-21T23:44:08.297Z,7.59
2023-04-21T23:46:37.074Z,7.55
2023-04-21T23:49:05.297Z,7.54
2023-04-21T23:51:33.724Z,7.54
2023-04-21T23:54:02.292Z,7.55
2023-04-21T23:56:30.419Z,7.55
2023-04-21T23:58:58.599Z,7.55
